sensor_id;sensor_type;location;lat;lon;timestamp;pressure;altitude;pressure_sealevel;temperature;humidity
81397;BME280;70852;49.908;8.126;2024-03-29T00:01:35;98392.75;;;4.19;77.78
81397;BME280;70852;49.908;8.126;2024-03-29T00:04:03;98393.56;;;4.11;78.08
81397;BME280;70852;49.908;8.126;2024-03-29T00:06:31;98374.91;;;4.04;78.23
81397;BME280;70852;49.908;8.126;2024-03-29T00:08:56;98375.09;;;3.99;78.51
81397;BME280;70852;49.908;8.126;2024-03-29T00:11:24;98376.03;;;4.03;78.08
81397;BME280;70852;49.908;8.126;2024-03-29T00:13:49;98372.22;;;3.78;77.76
81397;BME280;70852;49.908;8.126;2024-03-29T00:16:19;98353.72;;;3.75;78.33
81397;BME280;70852;49.908;8.126;2024-03-29T00:18:47;98353.72;;;3.66;78.54
81397;BME280;70852;49.908;8.126;2024-03-29T00:21:15;98351.00;;;3.66;79.06
81397;BME280;70852;49.908;8.126;2024-03-29T00:23:43;98349.56;;;3.69;79.11
81397;BME280;70852;49.908;8.126;2024-03-29T00:26:12;98346.34;;;3.67;78.66
81397;BME280;70852;49.908;8.126;2024-03-29T00:28:39;98339.28;;;3.57;79.39
81397;BME280;70852;49.908;8.126;2024-03-29T00:31:04;98350.81;;;3.63;79.16
81397;BME280;70852;49.908;8.126;2024-03-29T00:33:29;98346.03;;;3.68;79.24
81397;BME280;70852;49.908;8.126;2024-03-29T00:35:57;98333.19;;;3.78;79.23
81397;BME280;70852;49.908;8.126;2024-03-29T00:38:25;98334.28;;;3.77;79.01
81397;BME280;70852;49.908;8.126;2024-03-29T00:40:50;98345.53;;;3.84;79.45
81397;BME280;70852;49.908;8.126;2024-03-29T00:43:16;98338.13;;;3.84;79.62
81397;BME280;70852;49.908;8.126;2024-03-29T00:45:44;98336.84;;;3.99;79.36
81397;BME280;70852;49.908;8.126;2024-03-29T00:48:09;98335.88;;;3.95;79.48
81397;BME280;70852;49.908;8.126;2024-03-29T00:50:35;98336.34;;;4.05;79.55
81397;BME280;70852;49.908;8.126;2024-03-29T00:53:00;98325.09;;;4.16;79.45
81397;BME280;70852;49.908;8.126;2024-03-29T00:55:25;98321.22;;;4.17;79.51
81397;BME280;70852;49.908;8.126;2024-03-29T00:57:51;98318.03;;;4.23;79.75
81397;BME280;70852;49.908;8.126;2024-03-29T01:00:16;98324.25;;;4.32;79.34
81397;BME280;70852;49.908;8.126;2024-03-29T01:02:44;98323.47;;;4.32;79.86
81397;BME280;70852;49.908;8.126;2024-03-29T01:05:10;98322.66;;;4.31;79.12
81397;BME280;70852;49.908;8.126;2024-03-29T01:07:40;98319.91;;;4.31;79.33
81397;BME280;70852;49.908;8.126;2024-03-29T01:10:06;98316.72;;;4.21;79.63
81397;BME280;70852;49.908;8.126;2024-03-29T01:12:31;98319.78;;;4.19;79.46
81397;BME280;70852;49.908;8.126;2024-03-29T01:14:56;98324.91;;;4.29;79.36
81397;BME280;70852;49.908;8.126;2024-03-29T01:17:22;98318.78;;;4.24;79.76
81397;BME280;70852;49.908;8.126;2024-03-29T01:19:47;98314.63;;;4.26;80.23
81397;BME280;70852;49.908;8.126;2024-03-29T01:22:14;98305.28;;;4.27;80.04
81397;BME280;70852;49.908;8.126;2024-03-29T01:24:40;98290.84;;;4.18;80.37
81397;BME280;70852;49.908;8.126;2024-03-29T01:27:05;98276.72;;;4.16;81.18
81397;BME280;70852;49.908;8.126;2024-03-29T01:29:31;98275.75;;;4.21;80.93
81397;BME280;70852;49.908;8.126;2024-03-29T01:31:57;98271.72;;;4.18;80.58
81397;BME280;70852;49.908;8.126;2024-03-29T01:34:22;98247.94;;;4.19;81.20
81397;BME280;70852;49.908;8.126;2024-03-29T01:36:50;98263.03;;;4.25;80.22
81397;BME280;70852;49.908;8.126;2024-03-29T01:39:15;98253.22;;;4.32;80.53
81397;BME280;70852;49.908;8.126;2024-03-29T01:41:47;98271.53;;;4.32;80.17
81397;BME280;70852;49.908;8.126;2024-03-29T01:44:12;98289.69;;;4.28;80.09
81397;BME280;70852;49.908;8.126;2024-03-29T01:46:39;98268.47;;;4.25;80.24
81397;BME280;70852;49.908;8.126;2024-03-29T01:49:05;98273.47;;;4.31;80.66
81397;BME280;70852;49.908;8.126;2024-03-29T01:51:36;98272.66;;;4.31;80.71
81397;BME280;70852;49.908;8.126;2024-03-29T01:54:04;98282.44;;;4.40;80.60
81397;BME280;70852;49.908;8.126;2024-03-29T01:56:32;98281.44;;;4.45;80.47
81397;BME280;70852;49.908;8.126;2024-03-29T01:59:03;98278.69;;;4.45;81.08
81397;BME280;70852;49.908;8.126;2024-03-29T02:01:30;98288.50;;;4.55;80.33
81397;BME280;70852;49.908;8.126;2024-03-29T02:03:55;98298.38;;;4.68;80.69
81397;BME280;70852;49.908;8.126;2024-03-29T02:06:21;98294.69;;;4.72;80.28
81397;BME280;70852;49.908;8.126;2024-03-29T02:08:51;98280.09;;;4.60;80.07
81397;BME280;70852;49.908;8.126;2024-03-29T02:11:18;98296.34;;;4.56;80.45
81397;BME280;70852;49.908;8.126;2024-03-29T02:13:44;98325.94;;;4.63;80.65
81397;BME280;70852;49.908;8.126;2024-03-29T02:16:09;98331.78;;;4.44;81.22
81397;BME280;70852;49.908;8.126;2024-03-29T02:18:34;98332.69;;;4.57;81.47
81397;BME280;70852;49.908;8.126;2024-03-29T02:21:00;98301.81;;;4.56;81.70
81397;BME280;70852;49.908;8.126;2024-03-29T02:23:30;98303.53;;;4.69;81.29
81397;BME280;70852;49.908;8.126;2024-03-29T02:25:57;98311.78;;;4.90;81.15
81397;BME280;70852;49.908;8.126;2024-03-29T02:28:27;98317.03;;;5.04;80.53
81397;BME280;70852;49.908;8.126;2024-03-29T02:30:55;98311.41;;;5.00;80.26
81397;BME280;70852;49.908;8.126;2024-03-29T02:33:21;98300.72;;;5.16;80.30
81397;BME280;70852;49.908;8.126;2024-03-29T02:35:46;98292.44;;;5.25;79.88
81397;BME280;70852;49.908;8.126;2024-03-29T02:38:12;98284.16;;;5.33;80.46
81397;BME280;70852;49.908;8.126;2024-03-29T02:40:37;98263.81;;;5.43;80.67
81397;BME280;70852;49.908;8.126;2024-03-29T02:43:05;98247.13;;;5.36;80.55
81397;BME280;70852;49.908;8.126;2024-03-29T02:45:33;98243.78;;;5.30;80.78
81397;BME280;70852;49.908;8.126;2024-03-29T02:47:58;98230.09;;;5.30;80.11
81397;BME280;70852;49.908;8.126;2024-03-29T02:50:23;98223.63;;;5.35;80.13
81397;BME280;70852;49.908;8.126;2024-03-29T02:52:51;98238.25;;;5.39;79.87
81397;BME280;70852;49.908;8.126;2024-03-29T02:55:19;98236.44;;;5.43;79.92
81397;BME280;70852;49.908;8.126;2024-03-29T02:57:44;98260.81;;;5.36;79.23
81397;BME280;70852;49.908;8.126;2024-03-29T03:00:10;98287.63;;;5.42;79.86
81397;BME280;70852;49.908;8.126;2024-03-29T03:02:42;98318.94;;;5.33;80.31
81397;BME280;70852;49.908;8.126;2024-03-29T03:05:08;98311.94;;;5.44;80.48
81397;BME280;70852;49.908;8.126;2024-03-29T03:07:36;98307.22;;;5.53;78.67
81397;BME280;70852;49.908;8.126;2024-03-29T03:10:23;98301.53;;;5.58;77.93
81397;BME280;70852;49.908;8.126;2024-03-29T03:13:08;98303.72;;;5.65;77.54
81397;BME280;70852;49.908;8.126;2024-03-29T03:15:35;98299.38;;;5.64;79.50
81397;BME280;70852;49.908;8.126;2024-03-29T03:18:01;98295.09;;;5.75;80.72
81397;BME280;70852;49.908;8.126;2024-03-29T03:20:26;98291.22;;;5.76;81.21
81397;BME280;70852;49.908;8.126;2024-03-29T03:22:58;98302.66;;;5.78;80.70
81397;BME280;70852;49.908;8.126;2024-03-29T03:25:29;98311.47;;;5.83;80.44
81397;BME280;70852;49.908;8.126;2024-03-29T03:27:57;98289.09;;;5.81;79.38
81397;BME280;70852;49.908;8.126;2024-03-29T03:30:24;98280.19;;;5.84;79.72
81397;BME280;70852;49.908;8.126;2024-03-29T03:32:52;98285.00;;;5.87;79.81
81397;BME280;70852;49.908;8.126;2024-03-29T03:35:17;98293.06;;;5.93;80.71
81397;BME280;70852;49.908;8.126;2024-03-29T03:37:42;98303.94;;;6.01;80.19
81397;BME280;70852;49.908;8.126;2024-03-29T03:40:08;98307.16;;;6.03;79.84
81397;BME280;70852;49.908;8.126;2024-03-29T03:42:36;98286.25;;;6.11;81.08
81397;BME280;70852;49.908;8.126;2024-03-29T03:45:04;98287.53;;;6.13;81.27
81397;BME280;70852;49.908;8.126;2024-03-29T03:47:31;98288.25;;;6.22;78.82
81397;BME280;70852;49.908;8.126;2024-03-29T03:49:59;98301.47;;;6.20;80.55
81397;BME280;70852;49.908;8.126;2024-03-29T03:52:30;98295.09;;;6.29;76.10
81397;BME280;70852;49.908;8.126;2024-03-29T03:54:55;98291.22;;;6.30;76.69
81397;BME280;70852;49.908;8.126;2024-03-29T03:57:23;98291.38;;;6.45;80.14
81397;BME280;70852;49.908;8.126;2024-03-29T03:59:54;98284.19;;;6.53;81.98
81397;BME280;70852;49.908;8.126;2024-03-29T04:02:21;98269.31;;;6.42;80.19
81397;BME280;70852;49.908;8.126;2024-03-29T04:04:49;98273.19;;;6.41;79.31
81397;BME280;70852;49.908;8.126;2024-03-29T04:07:14;98265.78;;;6.41;81.43
81397;BME280;70852;49.908;8.126;2024-03-29T04:09:42;98259.34;;;6.37;80.57
81397;BME280;70852;49.908;8.126;2024-03-29T04:12:12;98251.81;;;6.46;81.40
81397;BME280;70852;49.908;8.126;2024-03-29T04:14:37;98272.63;;;6.47;80.48
81397;BME280;70852;49.908;8.126;2024-03-29T04:17:07;98260.63;;;6.52;81.08
81397;BME280;70852;49.908;8.126;2024-03-29T04:19:32;98279.59;;;6.57;78.91
81397;BME280;70852;49.908;8.126;2024-03-29T04:21:57;98278.81;;;6.56;76.40
81397;BME280;70852;49.908;8.126;2024-03-29T04:24:23;98270.47;;;6.53;76.34
81397;BME280;70852;49.908;8.126;2024-03-29T04:26:50;98266.59;;;6.54;77.07
81397;BME280;70852;49.908;8.126;2024-03-29T04:29:18;98247.88;;;6.56;76.10
81397;BME280;70852;49.908;8.126;2024-03-29T04:31:45;98250.47;;;6.52;75.73
81397;BME280;70852;49.908;8.126;2024-03-29T04:34:10;98253.34;;;6.56;77.69
81397;BME280;70852;49.908;8.126;2024-03-29T04:36:38;98240.06;;;6.58;76.61
81397;BME280;70852;49.908;8.126;2024-03-29T04:39:04;98240.19;;;6.61;79.51
81397;BME280;70852;49.908;8.126;2024-03-29T04:41:29;98242.81;;;6.58;80.58
81397;BME280;70852;49.908;8.126;2024-03-29T04:44:00;98240.88;;;6.58;81.46
81397;BME280;70852;49.908;8.126;2024-03-29T04:46:29;98240.44;;;6.56;80.36
81397;BME280;70852;49.908;8.126;2024-03-29T04:48:57;98246.25;;;6.55;81.68
81397;BME280;70852;49.908;8.126;2024-03-29T04:51:23;98249.00;;;6.55;83.17
81397;BME280;70852;49.908;8.126;2024-03-29T04:53:48;98249.78;;;6.68;83.31
81397;BME280;70852;49.908;8.126;2024-03-29T04:56:16;98253.31;;;6.68;82.55
81397;BME280;70852;49.908;8.126;2024-03-29T04:58:44;98249.78;;;6.68;83.64
81397;BME280;70852;49.908;8.126;2024-03-29T05:01:11;98252.44;;;6.64;83.64
81397;BME280;70852;49.908;8.126;2024-03-29T05:03:39;98251.50;;;6.60;84.15
81397;BME280;70852;49.908;8.126;2024-03-29T05:06:04;98250.16;;;6.66;84.48
81397;BME280;70852;49.908;8.126;2024-03-29T05:08:30;98258.13;;;6.59;84.54
81397;BME280;70852;49.908;8.126;2024-03-29T05:10:57;98251.16;;;6.61;84.23
81397;BME280;70852;49.908;8.126;2024-03-29T05:13:23;98247.06;;;6.55;84.83
81397;BME280;70852;49.908;8.126;2024-03-29T05:15:48;98258.72;;;6.65;85.25
81397;BME280;70852;49.908;8.126;2024-03-29T05:18:14;98254.59;;;6.58;84.75
81397;BME280;70852;49.908;8.126;2024-03-29T05:20:42;98249.09;;;6.58;84.87
81397;BME280;70852;49.908;8.126;2024-03-29T05:23:14;98247.50;;;6.57;84.15
81397;BME280;70852;49.908;8.126;2024-03-29T05:25:40;98249.09;;;6.46;84.52
81397;BME280;70852;49.908;8.126;2024-03-29T05:28:09;98255.50;;;6.50;84.51
81397;BME280;70852;49.908;8.126;2024-03-29T05:30:37;98253.56;;;6.51;84.40
81397;BME280;70852;49.908;8.126;2024-03-29T05:33:03;98269.22;;;6.50;84.46
81397;BME280;70852;49.908;8.126;2024-03-29T05:35:29;98275.50;;;6.63;85.38
81397;BME280;70852;49.908;8.126;2024-03-29T05:37:54;98282.94;;;6.63;84.71
81397;BME280;70852;49.908;8.126;2024-03-29T05:40:20;98280.88;;;6.72;84.84
81397;BME280;70852;49.908;8.126;2024-03-29T05:42:50;98284.56;;;6.76;85.67
81397;BME280;70852;49.908;8.126;2024-03-29T05:45:27;98289.34;;;6.67;85.43
81397;BME280;70852;49.908;8.126;2024-03-29T05:47:54;98284.22;;;6.77;85.85
81397;BME280;70852;49.908;8.126;2024-03-29T05:50:20;98296.69;;;6.87;86.11
81397;BME280;70852;49.908;8.126;2024-03-29T05:52:45;98281.69;;;6.96;86.28
81397;BME280;70852;49.908;8.126;2024-03-29T05:55:13;98281.56;;;6.93;85.24
81397;BME280;70852;49.908;8.126;2024-03-29T05:57:38;98281.44;;;6.89;85.59
81397;BME280;70852;49.908;8.126;2024-03-29T06:00:07;98291.63;;;7.01;86.40
81397;BME280;70852;49.908;8.126;2024-03-29T06:02:35;98304.53;;;7.01;86.12
81397;BME280;70852;49.908;8.126;2024-03-29T06:05:00;98294.63;;;7.08;86.87
81397;BME280;70852;49.908;8.126;2024-03-29T06:07:29;98308.41;;;7.24;86.93
81397;BME280;70852;49.908;8.126;2024-03-29T06:09:54;98307.88;;;7.18;87.36
81397;BME280;70852;49.908;8.126;2024-03-29T06:12:20;98309.69;;;7.26;87.35
81397;BME280;70852;49.908;8.126;2024-03-29T06:14:45;98306.25;;;7.17;87.41
81397;BME280;70852;49.908;8.126;2024-03-29T06:17:31;98305.44;;;7.29;88.23
81397;BME280;70852;49.908;8.126;2024-03-29T06:19:59;98300.38;;;7.43;88.57
81397;BME280;70852;49.908;8.126;2024-03-29T06:22:28;98297.47;;;7.64;88.45
81397;BME280;70852;49.908;8.126;2024-03-29T06:24:58;98302.03;;;7.72;88.51
81397;BME280;70852;49.908;8.126;2024-03-29T06:27:24;98309.56;;;7.75;88.24
81397;BME280;70852;49.908;8.126;2024-03-29T06:29:52;98310.78;;;7.90;88.58
81397;BME280;70852;49.908;8.126;2024-03-29T06:32:17;98302.53;;;7.90;88.57
81397;BME280;70852;49.908;8.126;2024-03-29T06:34:46;98302.66;;;7.93;89.08
81397;BME280;70852;49.908;8.126;2024-03-29T06:37:11;98310.75;;;8.02;88.54
81397;BME280;70852;49.908;8.126;2024-03-29T06:39:42;98310.59;;;8.11;88.54
81397;BME280;70852;49.908;8.126;2024-03-29T06:42:08;98296.94;;;8.14;88.21
81397;BME280;70852;49.908;8.126;2024-03-29T06:44:34;98308.03;;;8.18;88.54
81397;BME280;70852;49.908;8.126;2024-03-29T06:47:03;98302.97;;;8.20;88.27
81397;BME280;70852;49.908;8.126;2024-03-29T06:49:29;98307.66;;;8.31;88.18
81397;BME280;70852;49.908;8.126;2024-03-29T06:51:56;98305.69;;;8.32;87.89
81397;BME280;70852;49.908;8.126;2024-03-29T06:54:28;98305.91;;;8.27;88.38
81397;BME280;70852;49.908;8.126;2024-03-29T06:56:58;98296.16;;;8.29;88.64
81397;BME280;70852;49.908;8.126;2024-03-29T06:59:26;98300.50;;;8.30;88.76
81397;BME280;70852;49.908;8.126;2024-03-29T07:01:51;98299.22;;;8.40;89.04
81397;BME280;70852;49.908;8.126;2024-03-29T07:04:25;98299.16;;;8.36;88.52
81397;BME280;70852;49.908;8.126;2024-03-29T07:06:51;98305.72;;;8.48;88.58
81397;BME280;70852;49.908;8.126;2024-03-29T07:09:17;98309.97;;;8.45;88.34
81397;BME280;70852;49.908;8.126;2024-03-29T07:11:48;98312.75;;;8.45;88.61
81397;BME280;70852;49.908;8.126;2024-03-29T07:14:15;98315.56;;;8.49;88.40
81397;BME280;70852;49.908;8.126;2024-03-29T07:16:43;98310.44;;;8.47;87.88
81397;BME280;70852;49.908;8.126;2024-03-29T07:19:09;98303.50;;;8.53;87.51
81397;BME280;70852;49.908;8.126;2024-03-29T07:21:40;98306.59;;;8.52;87.21
81397;BME280;70852;49.908;8.126;2024-03-29T07:24:05;98309.81;;;8.54;86.77
81397;BME280;70852;49.908;8.126;2024-03-29T07:26:31;98306.97;;;8.50;86.79
81397;BME280;70852;49.908;8.126;2024-03-29T07:28:57;98318.25;;;8.61;86.96
81397;BME280;70852;49.908;8.126;2024-03-29T07:31:30;98307.22;;;8.61;86.88
81397;BME280;70852;49.908;8.126;2024-03-29T07:33:57;98306.00;;;8.74;86.47
81397;BME280;70852;49.908;8.126;2024-03-29T07:36:22;98305.22;;;8.89;87.59
81397;BME280;70852;49.908;8.126;2024-03-29T07:38:51;98302.63;;;8.96;88.10
81397;BME280;70852;49.908;8.126;2024-03-29T07:41:17;98302.63;;;8.96;87.68
81397;BME280;70852;49.908;8.126;2024-03-29T07:43:53;98304.94;;;9.10;87.44
81397;BME280;70852;49.908;8.126;2024-03-29T07:46:26;98307.16;;;9.20;87.22
81397;BME280;70852;49.908;8.126;2024-03-29T07:48:52;98299.38;;;9.26;86.85
81397;BME280;70852;49.908;8.126;2024-03-29T07:51:17;98298.94;;;9.24;87.44
81397;BME280;70852;49.908;8.126;2024-03-29T07:53:43;98301.34;;;9.25;87.05
81397;BME280;70852;49.908;8.126;2024-03-29T07:56:10;98290.88;;;9.15;87.19
81397;BME280;70852;49.908;8.126;2024-03-29T07:58:35;98295.88;;;9.09;86.97
81397;BME280;70852;49.908;8.126;2024-03-29T08:01:06;98295.88;;;9.09;87.80
81397;BME280;70852;49.908;8.126;2024-03-29T08:03:34;98302.22;;;9.29;88.57
81397;BME280;70852;49.908;8.126;2024-03-29T08:06:00;98317.97;;;9.29;87.65
81397;BME280;70852;49.908;8.126;2024-03-29T08:08:31;98319.13;;;9.28;87.70
81397;BME280;70852;49.908;8.126;2024-03-29T08:10:57;98319.81;;;9.40;87.48
81397;BME280;70852;49.908;8.126;2024-03-29T08:13:24;98329.28;;;9.43;87.67
81397;BME280;70852;49.908;8.126;2024-03-29T08:16:01;98337.66;;;9.46;87.71
81397;BME280;70852;49.908;8.126;2024-03-29T08:18:31;98342.34;;;9.46;86.88
81397;BME280;70852;49.908;8.126;2024-03-29T08:20:59;98339.91;;;9.25;86.73
81397;BME280;70852;49.908;8.126;2024-03-29T08:23:27;98334.31;;;9.22;87.07
81397;BME280;70852;49.908;8.126;2024-03-29T08:25:52;98340.69;;;9.26;87.01
81397;BME280;70852;49.908;8.126;2024-03-29T08:28:27;98331.94;;;9.20;87.24
81397;BME280;70852;49.908;8.126;2024-03-29T08:31:06;98334.94;;;9.15;87.04
81397;BME280;70852;49.908;8.126;2024-03-29T08:33:34;98342.50;;;9.18;87.02
81397;BME280;70852;49.908;8.126;2024-03-29T08:36:03;98341.00;;;9.21;87.23
81397;BME280;70852;49.908;8.126;2024-03-29T08:38:31;98337.78;;;9.18;87.06
81397;BME280;70852;49.908;8.126;2024-03-29T08:40:58;98341.69;;;9.17;86.35
81397;BME280;70852;49.908;8.126;2024-03-29T08:43:29;98348.25;;;9.13;86.58
81397;BME280;70852;49.908;8.126;2024-03-29T08:45:54;98356.97;;;9.15;86.66
81397;BME280;70852;49.908;8.126;2024-03-29T08:48:19;98364.00;;;9.28;86.53
81397;BME280;70852;49.908;8.126;2024-03-29T08:50:47;98363.34;;;9.50;86.45
81397;BME280;70852;49.908;8.126;2024-03-29T08:53:12;98368.66;;;9.59;86.00
81397;BME280;70852;49.908;8.126;2024-03-29T08:55:43;98363.59;;;9.61;85.99
81397;BME280;70852;49.908;8.126;2024-03-29T08:58:08;98375.06;;;9.63;86.52
81397;BME280;70852;49.908;8.126;2024-03-29T09:00:33;98379.91;;;9.70;86.61
81397;BME280;70852;49.908;8.126;2024-03-29T09:02:58;98390.84;;;9.66;85.20
81397;BME280;70852;49.908;8.126;2024-03-29T09:05:25;98389.94;;;9.78;85.64
81397;BME280;70852;49.908;8.126;2024-03-29T09:07:51;98398.78;;;9.87;83.90
81397;BME280;70852;49.908;8.126;2024-03-29T09:10:21;98392.66;;;9.94;84.81
81397;BME280;70852;49.908;8.126;2024-03-29T09:12:47;98396.50;;;9.89;85.11
81397;BME280;70852;49.908;8.126;2024-03-29T09:15:15;98398.19;;;9.94;84.89
81397;BME280;70852;49.908;8.126;2024-03-29T09:17:43;98414.78;;;9.97;84.45
81397;BME280;70852;49.908;8.126;2024-03-29T09:20:09;98408.09;;;9.98;82.50
81397;BME280;70852;49.908;8.126;2024-03-29T09:22:35;98402.53;;;9.95;82.69
81397;BME280;70852;49.908;8.126;2024-03-29T09:25:01;98410.19;;;9.85;81.09
81397;BME280;70852;49.908;8.126;2024-03-29T09:27:29;98406.00;;;9.91;81.76
81397;BME280;70852;49.908;8.126;2024-03-29T09:29:55;98421.41;;;9.77;80.56
81397;BME280;70852;49.908;8.126;2024-03-29T09:32:26;98419.66;;;9.69;80.29
81397;BME280;70852;49.908;8.126;2024-03-29T09:34:54;98426.06;;;9.57;80.30
81397;BME280;70852;49.908;8.126;2024-03-29T09:37:19;98420.94;;;9.24;80.33
81397;BME280;70852;49.908;8.126;2024-03-29T09:39:51;98411.03;;;9.54;81.12
81397;BME280;70852;49.908;8.126;2024-03-29T09:42:21;98422.81;;;9.51;79.32
81397;BME280;70852;49.908;8.126;2024-03-29T09:44:51;98428.47;;;9.59;79.59
81397;BME280;70852;49.908;8.126;2024-03-29T09:47:19;98434.69;;;9.55;79.55
81397;BME280;70852;49.908;8.126;2024-03-29T09:49:46;98437.78;;;9.70;79.81
81397;BME280;70852;49.908;8.126;2024-03-29T09:52:13;98438.28;;;9.91;81.67
81397;BME280;70852;49.908;8.126;2024-03-29T09:54:43;98440.81;;;10.15;81.22
81397;BME280;70852;49.908;8.126;2024-03-29T09:57:12;98446.22;;;9.77;80.34
81397;BME280;70852;49.908;8.126;2024-03-29T09:59:44;98440.47;;;9.66;81.50
81397;BME280;70852;49.908;8.126;2024-03-29T10:02:18;98444.66;;;9.60;81.10
81397;BME280;70852;49.908;8.126;2024-03-29T10:04:46;98442.09;;;10.02;80.30
81397;BME280;70852;49.908;8.126;2024-03-29T10:07:14;98455.66;;;10.26;80.50
81397;BME280;70852;49.908;8.126;2024-03-29T10:09:41;98458.44;;;10.11;80.04
81397;BME280;70852;49.908;8.126;2024-03-29T10:12:07;98444.84;;;10.02;81.25
81397;BME280;70852;49.908;8.126;2024-03-29T10:14:46;98456.78;;;9.90;80.52
81397;BME280;70852;49.908;8.126;2024-03-29T10:17:16;98456.88;;;9.94;80.98
81397;BME280;70852;49.908;8.126;2024-03-29T10:19:44;98465.66;;;10.00;80.81
81397;BME280;70852;49.908;8.126;2024-03-29T10:22:12;98452.69;;;10.00;81.72
81397;BME280;70852;49.908;8.126;2024-03-29T10:24:40;98441.44;;;10.24;82.67
81397;BME280;70852;49.908;8.126;2024-03-29T10:27:05;98439.75;;;10.20;80.48
81397;BME280;70852;49.908;8.126;2024-03-29T10:29:31;98433.25;;;10.47;80.27
81397;BME280;70852;49.908;8.126;2024-03-29T10:31:59;98431.34;;;10.32;80.99
81397;BME280;70852;49.908;8.126;2024-03-29T10:34:25;98430.09;;;10.49;81.71
81397;BME280;70852;49.908;8.126;2024-03-29T10:36:54;98429.38;;;10.33;81.83
81397;BME280;70852;49.908;8.126;2024-03-29T10:39:20;98425.50;;;10.18;82.04
81397;BME280;70852;49.908;8.126;2024-03-29T10:41:51;98424.94;;;10.28;85.41
81397;BME280;70852;49.908;8.126;2024-03-29T10:44:21;98417.84;;;10.27;86.94
81397;BME280;70852;49.908;8.126;2024-03-29T10:46:51;98416.00;;;10.15;83.97
81397;BME280;70852;49.908;8.126;2024-03-29T10:49:20;98396.72;;;10.35;83.17
81397;BME280;70852;49.908;8.126;2024-03-29T10:51:47;98398.44;;;10.23;83.32
81397;BME280;70852;49.908;8.126;2024-03-29T10:54:13;98402.94;;;10.32;84.40
81397;BME280;70852;49.908;8.126;2024-03-29T10:56:42;98403.13;;;10.04;83.90
81397;BME280;70852;49.908;8.126;2024-03-29T11:01:52;98404.94;;;10.15;85.21
81397;BME280;70852;49.908;8.126;2024-03-29T11:04:22;98388.22;;;10.24;85.05
81397;BME280;70852;49.908;8.126;2024-03-29T11:06:51;98380.13;;;10.15;84.51
81397;BME280;70852;49.908;8.126;2024-03-29T11:09:20;98387.53;;;10.50;84.51
81397;BME280;70852;49.908;8.126;2024-03-29T11:11:52;98390.09;;;10.81;85.49
81397;BME280;70852;49.908;8.126;2024-03-29T11:14:24;98389.69;;;10.60;84.13
81397;BME280;70852;49.908;8.126;2024-03-29T11:16:54;98389.50;;;10.49;84.92
81397;BME280;70852;49.908;8.126;2024-03-29T11:19:24;98402.56;;;10.52;85.19
81397;BME280;70852;49.908;8.126;2024-03-29T11:21:52;98416.50;;;10.79;85.76
81397;BME280;70852;49.908;8.126;2024-03-29T11:24:22;98427.19;;;10.61;85.50
81397;BME280;70852;49.908;8.126;2024-03-29T11:26:51;98438.38;;;10.68;85.70
81397;BME280;70852;49.908;8.126;2024-03-29T11:29:23;98451.28;;;10.83;85.50
81397;BME280;70852;49.908;8.126;2024-03-29T11:31:58;98464.38;;;10.86;85.77
81397;BME280;70852;49.908;8.126;2024-03-29T11:34:24;98467.13;;;10.86;85.68
81397;BME280;70852;49.908;8.126;2024-03-29T11:36:54;98456.09;;;10.86;86.23
81397;BME280;70852;49.908;8.126;2024-03-29T11:39:21;98441.75;;;11.00;85.76
81397;BME280;70852;49.908;8.126;2024-03-29T11:41:47;98441.59;;;11.12;85.52
81397;BME280;70852;49.908;8.126;2024-03-29T11:44:17;98438.38;;;11.56;84.89
81397;BME280;70852;49.908;8.126;2024-03-29T11:46:46;98435.31;;;11.61;85.48
81397;BME280;70852;49.908;8.126;2024-03-29T11:49:15;98435.25;;;11.57;85.20
81397;BME280;70852;49.908;8.126;2024-03-29T11:51:41;98438.00;;;11.80;86.28
81397;BME280;70852;49.908;8.126;2024-03-29T11:54:06;98443.03;;;11.74;85.74
81397;BME280;70852;49.908;8.126;2024-03-29T11:56:32;98457.13;;;11.43;85.85
81397;BME280;70852;49.908;8.126;2024-03-29T11:58:57;98464.47;;;11.58;87.05
81397;BME280;70852;49.908;8.126;2024-03-29T12:01:27;98464.72;;;11.27;87.02
81397;BME280;70852;49.908;8.126;2024-03-29T12:03:54;98450.91;;;11.04;87.91
81397;BME280;70852;49.908;8.126;2024-03-29T12:06:20;98457.22;;;11.05;87.60
81397;BME280;70852;49.908;8.126;2024-03-29T12:08:45;98451.81;;;11.34;89.13
81397;BME280;70852;49.908;8.126;2024-03-29T12:11:10;98446.13;;;11.47;88.30
81397;BME280;70852;49.908;8.126;2024-03-29T12:13:36;98438.53;;;11.66;88.73
81397;BME280;70852;49.908;8.126;2024-03-29T12:16:05;98431.38;;;11.62;87.62
81397;BME280;70852;49.908;8.126;2024-03-29T12:18:33;98430.88;;;11.56;88.67
81397;BME280;70852;49.908;8.126;2024-03-29T12:21:02;98424.31;;;11.64;88.80
81397;BME280;70852;49.908;8.126;2024-03-29T12:23:32;98420.09;;;11.25;89.31
81397;BME280;70852;49.908;8.126;2024-03-29T12:25:58;98424.88;;;11.28;90.28
81397;BME280;70852;49.908;8.126;2024-03-29T12:28:25;98435.59;;;11.56;90.01
81397;BME280;70852;49.908;8.126;2024-03-29T12:30:51;98449.81;;;11.54;89.74
81397;BME280;70852;49.908;8.126;2024-03-29T12:33:21;98445.03;;;11.51;89.98
81397;BME280;70852;49.908;8.126;2024-03-29T12:35:48;98455.41;;;11.35;90.17
81397;BME280;70852;49.908;8.126;2024-03-29T12:38:21;98465.84;;;11.45;90.42
81397;BME280;70852;49.908;8.126;2024-03-29T12:40:49;98465.44;;;11.43;90.83
81397;BME280;70852;49.908;8.126;2024-03-29T12:43:19;98470.72;;;11.52;90.81
81397;BME280;70852;49.908;8.126;2024-03-29T12:45:46;98474.44;;;11.63;90.85
81397;BME280;70852;49.908;8.126;2024-03-29T12:48:21;98487.72;;;11.54;90.92
81397;BME280;70852;49.908;8.126;2024-03-29T12:50:50;98500.38;;;11.78;90.86
81397;BME280;70852;49.908;8.126;2024-03-29T12:53:16;98492.69;;;11.67;90.61
81397;BME280;70852;49.908;8.126;2024-03-29T12:55:43;98503.31;;;11.65;90.86
81397;BME280;70852;49.908;8.126;2024-03-29T12:58:18;98506.09;;;11.88;90.71
81397;BME280;70852;49.908;8.126;2024-03-29T13:00:49;98505.09;;;12.00;90.14
81397;BME280;70852;49.908;8.126;2024-03-29T13:03:15;98505.78;;;12.20;89.46
81397;BME280;70852;49.908;8.126;2024-03-29T13:05:41;98508.25;;;12.25;88.28
81397;BME280;70852;49.908;8.126;2024-03-29T13:08:08;98501.47;;;12.49;88.28
81397;BME280;70852;49.908;8.126;2024-03-29T13:10:46;98509.19;;;12.36;87.90
81397;BME280;70852;49.908;8.126;2024-03-29T13:13:13;98502.53;;;12.14;88.51